Time;durP1;ratioP1;P1;durP2;ratioP2;P2;SDS_P1;SDS_P2;PMS_P1;PMS_P2;Temp;Humidity;BMP_temperature;BMP_pressure;BME280_temperature;BME280_humidity;BME280_pressure;Samples;Min_cycle;Max_cycle;Signal;HPM_P1;HPM_P2
2023/04/21 00:03:28;;;;;;;23.27;6.30;;;;;;;11.46;77.29;99063.88;10344799;28;20581;-75
2023/04/21 00:08:29;;;;;;;30.17;5.22;;;;;;;11.20;77.62;99038.91;10343008;28;20074;-75
2023/04/21 00:13:30;;;;;;;24.80;4.97;;;;;;;11.26;78.12;99090.44;10337495;28;20066;-74
2023/04/21 00:18:30;;;;;;;39.05;6.35;;;;;;;11.17;77.94;99092.47;10310612;28;20046;-74
2023/04/21 00:23:31;;;;;;;36.53;6.03;;;;;;;11.18;78.25;99088.78;10297602;28;20080;-75
2023/04/21 00:28:32;;;;;;;22.27;5.35;;;;;;;11.12;78.04;99083.47;10296553;28;20125;-74
2023/04/21 00:33:33;;;;;;;34.75;5.55;;;;;;;10.83;78.45;99027.03;10296563;28;20073;-74
2023/04/21 00:38:33;;;;;;;30.40;5.00;;;;;;;11.28;78.58;99100.88;10296220;28;20133;-74
2023/04/21 00:43:34;;;;;;;27.17;5.05;;;;;;;11.12;78.74;99078.97;10296525;28;20043;-74
2023/04/21 00:48:35;;;;;;;29.70;6.13;;;;;;;10.89;78.78;99023.56;10296410;28;20050;-74
2023/04/21 00:53:36;;;;;;;28.60;8.68;;;;;;;11.16;79.44;99064.25;10296137;28;20566;-74
2023/04/21 00:58:41;;;;;;;32.67;6.47;;;;;;;10.34;79.23;98891.91;10295534;28;20051;-74
2023/04/21 01:03:42;;;;;;;31.85;6.85;;;;;;;11.35;78.96;99053.84;10296244;28;20407;-74
2023/04/21 01:08:45;;;;;;;37.95;7.47;;;;;;;11.18;78.09;99027.66;10335176;28;20482;-74
2023/04/21 01:13:46;;;;;;;32.17;7.40;;;;;;;11.20;77.77;99038.09;10335752;28;20060;-74
2023/04/21 01:18:47;;;;;;;30.80;5.85;;;;;;;11.63;77.88;99085.53;10335323;28;20052;-74
2023/04/21 01:23:48;;;;;;;29.83;4.97;;;;;;;11.70;77.62;99096.19;10335487;28;20121;-74
2023/04/21 01:28:49;;;;;;;35.50;5.43;;;;;;;11.50;77.93;99069.59;10336280;28;20541;-75
2023/04/21 01:33:50;;;;;;;34.45;5.60;;;;;;;11.72;77.81;99104.75;10334280;28;20399;-75
2023/04/21 01:38:51;;;;;;;34.60;5.60;;;;;;;11.77;77.88;99103.13;10331133;28;20425;-74
2023/04/21 01:43:51;;;;;;;37.03;5.47;;;;;;;11.76;78.01;99104.16;10302882;28;20057;-75
2023/04/21 01:48:52;;;;;;;29.77;4.57;;;;;;;11.84;78.59;99105.78;10294271;28;20039;-74
2023/04/21 01:53:53;;;;;;;41.28;5.53;;;;;;;11.65;78.32;99076.31;10293080;28;20055;-74
2023/04/21 01:58:54;;;;;;;30.35;5.40;;;;;;;11.64;79.00;99065.91;10293156;28;20145;-74
2023/04/21 02:03:55;;;;;;;16.50;3.97;;;;;;;11.99;79.42;99127.69;10293468;28;20110;-75
2023/04/21 02:08:57;;;;;;;31.88;5.30;;;;;;;11.74;79.20;99087.56;10316116;28;20053;-75
2023/04/21 02:13:57;;;;;;;41.42;6.60;;;;;;;12.25;79.31;99156.13;10293852;28;20577;-75
2023/04/21 02:19:02;;;;;;;45.13;11.82;;;;;;;12.05;79.96;99104.75;10305348;28;20103;-74
2023/04/21 02:24:02;;;;;;;;;;;;;;;12.46;80.65;99136.41;10334167;28;20038;-75
2023/04/21 02:29:03;;;;;;;32.17;9.65;;;;;;;12.48;79.94;99137.03;10332850;28;20024;-75
2023/04/21 02:34:04;;;;;;;37.78;7.95;;;;;;;12.41;80.65;99087.44;10332809;28;20038;-74
2023/04/21 02:39:05;;;;;;;30.98;6.68;;;;;;;11.88;80.38;98998.75;10331806;28;20062;-74
2023/04/21 02:44:06;;;;;;;27.95;6.82;;;;;;;12.66;81.25;99132.88;10331506;28;20038;-74
2023/04/21 02:49:07;;;;;;;24.50;6.28;;;;;;;12.78;81.75;99152.50;10319871;28;20045;-74
2023/04/21 02:54:08;;;;;;;32.50;6.55;;;;;;;12.87;82.17;99161.06;10332184;28;20525;-74
2023/04/21 02:59:10;;;;;;;24.92;5.47;;;;;;;12.85;82.96;99141.78;10327010;28;20050;-75
2023/04/21 03:04:11;;;;;;;40.03;7.13;;;;;;;12.82;83.46;99132.38;10310045;28;20034;-74
2023/04/21 03:09:12;;;;;;;33.47;12.68;;;;;;;12.82;83.55;99121.72;10328456;28;20449;-75
2023/04/21 03:14:13;;;;;;;22.55;5.72;;;;;;;13.00;83.45;99143.13;10331769;28;20050;-75
2023/04/21 03:19:14;;;;;;;22.95;5.30;;;;;;;12.97;83.40;99138.25;10331764;28;20038;-74
2023/04/21 03:24:15;;;;;;;29.70;5.78;;;;;;;13.07;84.27;99152.94;10330937;28;20120;-75
2023/04/21 03:29:16;;;;;;;20.88;5.13;;;;;;;13.06;84.27;99146.00;10330921;28;20049;-74
2023/04/21 03:34:16;;;;;;;29.60;5.00;;;;;;;12.82;85.26;99111.06;10331534;28;20121;-74
2023/04/21 03:39:17;;;;;;;19.95;4.75;;;;;;;13.09;86.30;99148.22;10331639;28;20046;-74
2023/04/21 03:44:18;;;;;;;13.77;3.60;;;;;;;13.19;87.67;99140.56;10330636;28;20506;-74
2023/04/21 03:49:18;;;;;;;5.13;2.80;;;;;;;13.40;88.11;99144.78;10330986;28;20495;-77
2023/04/21 03:54:20;;;;;;;3.15;1.40;;;;;;;13.45;89.02;99144.97;10331109;28;20129;-75
2023/04/21 03:59:20;;;;;;;4.50;1.67;;;;;;;13.26;90.00;99095.25;10336632;28;20506;-74
2023/04/21 04:04:21;;;;;;;3.65;1.98;;;;;;;13.82;90.07;99166.44;10337555;28;20050;-75
2023/04/21 04:09:22;;;;;;;3.97;1.80;;;;;;;13.94;90.89;99175.41;10338014;28;20043;-77
2023/04/21 04:14:23;;;;;;;3.75;1.65;;;;;;;14.01;90.58;99168.13;10332942;28;20490;-74
2023/04/21 04:19:30;;;;;;;3.95;2.05;;;;;;;13.70;91.52;99105.78;10335177;28;20043;-74
2023/04/21 04:24:32;;;;;;;2.72;1.73;;;;;;;14.21;90.27;99186.66;10378295;28;20501;-75
2023/04/21 04:29:33;;;;;;;3.13;1.80;;;;;;;14.43;89.96;99172.88;10394206;28;20447;-73
2023/04/21 04:34:36;;;;;;;3.00;1.85;;;;;;;14.12;89.22;99095.31;10417529;28;20040;-74
2023/04/21 04:39:37;;;;;;;3.97;2.10;;;;;;;14.81;88.58;99204.78;10417943;28;20049;-76
2023/04/21 04:44:40;;;;;;;3.47;2.10;;;;;;;14.96;88.16;99220.44;10418344;28;20493;-75
2023/04/21 04:49:41;;;;;;;3.13;1.83;;;;;;;14.72;87.20;99179.38;10402720;28;20080;-75
2023/04/21 04:54:41;;;;;;;3.03;1.50;;;;;;;15.00;86.95;99216.28;10390341;28;20068;-75
2023/04/21 04:59:42;;;;;;;6.00;1.60;;;;;;;14.90;85.50;99175.84;10376648;28;20072;-75
2023/04/21 05:04:43;;;;;;;4.55;1.90;;;;;;;14.70;84.08;99096.72;10376428;28;20049;-75
2023/04/21 05:09:44;;;;;;;4.85;1.90;;;;;;;14.92;82.47;99102.41;10376421;28;20048;-75
2023/04/21 05:14:45;;;;;;;2.85;1.27;;;;;;;15.47;81.43;99160.28;10376365;28;20042;-74
2023/04/21 05:19:45;;;;;;;2.80;1.30;;;;;;;15.60;80.51;99149.38;10417077;28;20041;-76
2023/04/21 05:24:46;;;;;;;4.22;1.30;;;;;;;15.92;79.63;99208.03;10416499;28;20149;-75
2023/04/21 05:29:47;;;;;;;4.72;1.58;;;;;;;15.90;79.29;99221.63;10417007;28;20041;-75
2023/04/21 05:34:48;;;;;;;2.78;1.10;;;;;;;15.32;78.12;99123.25;10415268;28;20498;-73
2023/04/21 05:39:50;;;;;;;3.58;1.13;;;;;;;16.06;76.96;99244.25;10416433;28;20128;-75
2023/04/21 05:44:50;;;;;;;3.88;0.80;;;;;;;16.13;75.83;99238.81;10415928;28;20489;-77
2023/04/21 05:49:52;;;;;;;3.13;1.10;;;;;;;16.08;75.35;99227.94;10416473;28;20046;-75
2023/04/21 05:54:53;;;;;;;2.40;0.90;;;;;;;16.14;75.16;99253.81;10415690;28;20497;-76
2023/04/21 05:59:54;;;;;;;4.95;0.90;;;;;;;16.17;75.28;99262.19;10415000;28;20061;-73
2023/04/21 06:04:55;;;;;;;3.78;0.90;;;;;;;16.32;74.54;99264.44;10413450;28;20034;-72
2023/04/21 06:09:56;;;;;;;3.10;1.00;;;;;;;16.40;73.62;99231.13;10414755;28;20128;-77
2023/04/21 06:14:58;;;;;;;2.05;0.90;;;;;;;16.79;73.09;99253.75;10414798;28;20128;-76
2023/04/21 06:19:58;;;;;;;2.08;1.02;;;;;;;16.39;72.44;99198.16;10413310;28;20097;-73
2023/04/21 06:24:59;;;;;;;4.45;0.90;;;;;;;16.13;72.12;99179.84;10414481;28;20123;-72
2023/04/21 06:30:00;;;;;;;3.13;1.15;;;;;;;16.53;72.06;99265.72;10414207;28;20490;-78
2023/04/21 06:35:01;;;;;;;1.50;0.50;;;;;;;16.34;70.64;99232.88;10414554;28;20045;-75
2023/04/21 06:40:02;;;;;;;4.13;0.80;;;;;;;16.86;70.34;99305.38;10413761;28;20059;-78
2023/04/21 06:45:04;;;;;;;1.50;0.63;;;;;;;16.86;69.26;99254.44;10413920;28;20088;-75
2023/04/21 06:50:05;;;;;;;1.23;0.60;;;;;;;17.29;68.08;99306.03;10413571;28;20045;-78
2023/04/21 06:55:06;;;;;;;17.88;1.83;;;;;;;16.82;67.19;99196.94;10414071;28;20064;-75
2023/04/21 07:00:08;;;;;;;1.45;0.80;;;;;;;17.20;66.37;99253.75;10412848;28;20042;-77
2023/04/21 07:05:09;;;;;;;2.08;0.70;;;;;;;17.66;66.00;99266.22;10412792;28;20041;-76
2023/04/21 07:10:10;;;;;;;1.95;0.68;;;;;;;17.95;63.84;99207.13;10412480;28;20501;-75
2023/04/21 07:15:11;;;;;;;1.25;0.52;;;;;;;18.64;63.61;99272.16;10412865;28;20041;-77
2023/04/21 07:20:12;;;;;;;2.38;0.50;;;;;;;18.34;63.94;99279.78;10412986;28;20069;-74
2023/04/21 07:25:13;;;;;;;2.13;0.40;;;;;;;18.41;63.43;99296.53;10412367;28;20052;-73
2023/04/21 07:30:14;;;;;;;0.77;0.45;;;;;;;18.33;62.04;99257.44;10415117;28;20121;-73
2023/04/21 07:35:15;;;;;;;0.98;0.50;;;;;;;18.42;61.09;99276.66;10420827;28;20119;-74
2023/04/21 07:40:15;;;;;;;1.60;0.50;;;;;;;18.07;61.65;99232.03;10420656;28;20500;-74
2023/04/21 07:45:17;;;;;;;1.85;0.38;;;;;;;18.48;61.39;99264.91;10420742;28;20033;-72
2023/04/21 07:50:18;;;;;;;2.75;0.73;;;;;;;18.54;60.04;99201.25;10420560;28;20397;-73
2023/04/21 07:55:18;;;;;;;4.35;1.00;;;;;;;18.83;58.81;99250.38;10419544;28;20068;-75
2023/04/21 08:00:20;;;;;;;2.15;0.75;;;;;;;19.41;57.81;99191.56;10420203;28;20114;-72
2023/04/21 08:05:20;;;;;;;3.40;0.63;;;;;;;19.64;56.96;99255.91;10419315;28;20064;-72
2023/04/21 08:10:21;;;;;;;1.50;0.70;;;;;;;19.93;56.00;99202.59;10419742;28;20029;-71
2023/04/21 08:15:22;;;;;;;1.50;0.47;;;;;;;20.33;55.44;99263.28;10419734;28;20056;-71
2023/04/21 08:20:23;;;;;;;1.08;0.40;;;;;;;19.89;55.09;99241.09;10419183;28;20382;-72
2023/04/21 08:25:24;;;;;;;1.35;0.63;;;;;;;20.12;55.76;99256.91;10419014;28;20103;-75
2023/04/21 08:30:27;;;;;;;1.00;0.55;;;;;;;20.25;54.15;99240.31;10418437;28;20061;-75
2023/04/21 08:35:27;;;;;;;3.13;0.65;;;;;;;20.40;53.92;99263.06;10418853;28;20485;-74
2023/04/21 08:40:35;;;;;;;1.05;0.50;;;;;;;20.42;52.85;99261.72;10418383;28;20041;-75
2023/04/21 08:45:35;;;;;;;2.00;0.60;;;;;;;20.30;52.92;99236.84;10418307;28;20049;-76
2023/04/21 08:50:37;;;;;;;2.72;0.90;;;;;;;20.30;52.94;99218.75;10418158;28;20408;-74
2023/04/21 08:55:38;;;;;;;0.50;0.38;;;;;;;20.66;51.66;99229.00;10418437;28;20061;-74
2023/04/21 09:00:40;;;;;;;3.28;0.73;;;;;;;20.96;51.22;99280.44;10417791;28;20080;-73
2023/04/21 09:05:41;;;;;;;0.98;0.60;;;;;;;20.75;51.08;99243.63;10417937;28;20037;-76
2023/04/21 09:10:48;;;;;;;5.30;1.42;;;;;;;20.92;50.81;99287.47;10416840;28;20136;-74
2023/04/21 09:15:53;;;;;;;0.88;0.50;;;;;;;20.35;52.30;99290.81;10417234;28;20044;-74
2023/04/21 09:21:15;;;;;;;3.95;1.00;;;;;;;20.78;51.97;99290.88;10416920;28;20221;-73
2023/04/21 09:26:17;;;;;;;3.72;1.02;;;;;;;20.07;53.37;99289.22;10416746;28;20033;-73
2023/04/21 09:31:28;;;;;;;2.10;0.90;;;;;;;19.96;52.43;99285.63;10416191;28;20053;-74
2023/04/21 09:36:30;;;;;;;3.10;1.13;;;;;;;20.04;51.79;99266.31;10416815;28;20037;-73
2023/04/21 09:41:31;;;;;;;1.52;0.90;;;;;;;20.65;50.57;99284.88;10416427;28;20042;-73
2023/04/21 09:46:35;;;;;;;2.55;1.10;;;;;;;20.73;50.37;99305.97;10416191;28;20081;-73
2023/04/21 09:51:38;;;;;;;1.98;1.00;;;;;;;20.42;51.57;99302.19;10415801;28;20042;-74
2023/04/21 09:56:42;;;;;;;4.30;1.30;;;;;;;19.94;52.31;99290.47;10414951;28;20061;-73
2023/04/21 10:01:43;;;;;;;;;;;;;;;20.45;51.33;99317.06;10414810;28;20085;-73
2023/04/21 10:06:46;;;;;;;4.30;1.80;;;;;;;20.00;51.71;99302.91;10414868;28;19917;-73
2023/04/21 10:11:47;;;;;;;3.33;1.80;;;;;;;19.89;51.60;99220.31;10415796;28;20099;-72
2023/04/21 10:17:08;;;;;;;4.15;2.10;;;;;;;20.44;50.02;99305.47;10414667;28;20091;-71
2023/04/21 10:22:10;;;;;;;4.22;2.60;;;;;;;20.48;49.10;99287.69;10414408;28;20397;-72
2023/04/21 10:27:12;;;;;;;3.42;2.00;;;;;;;21.13;48.62;99301.88;10414643;28;20037;-72
2023/04/21 10:32:39;;;;;;;4.82;2.45;;;;;;;21.20;48.72;99293.53;10413721;28;20053;-74
2023/04/21 10:37:41;;;;;;;2.90;1.83;;;;;;;21.49;47.48;99296.66;10413474;28;20041;-72
2023/04/21 10:42:42;;;;;;;3.63;2.28;;;;;;;21.78;47.02;99315.94;10413570;28;20515;-72
2023/04/21 10:47:50;;;;;;;5.07;2.35;;;;;;;21.21;47.96;99311.38;10413863;28;20044;-72
2023/04/21 10:53:10;;;;;;;4.55;2.08;;;;;;;20.62;49.40;99308.88;10413890;28;20061;-73
2023/04/21 10:58:10;;;;;;;4.88;2.33;;;;;;;20.27;49.03;99242.75;10413920;28;20386;-73
2023/04/21 11:03:11;;;;;;;4.68;2.00;;;;;;;20.33;49.42;99305.63;10412544;28;20050;-73
2023/04/21 11:08:14;;;;;;;4.75;2.95;;;;;;;19.92;49.30;99238.69;10412347;28;20424;-72
2023/04/21 11:13:15;;;;;;;4.90;2.07;;;;;;;20.44;49.30;99304.66;10413318;28;20107;-73
2023/04/21 11:18:17;;;;;;;5.13;2.45;;;;;;;20.08;49.74;99338.59;10412955;28;20413;-73
2023/04/21 11:23:18;;;;;;;3.55;2.08;;;;;;;19.20;50.03;99255.94;10413010;28;20033;-73
2023/04/21 11:28:20;;;;;;;4.13;2.40;;;;;;;19.35;50.34;99299.25;10412840;28;20045;-73
2023/04/21 11:33:21;;;;;;;4.10;1.90;;;;;;;19.69;50.07;99339.53;10412913;28;20034;-72
2023/04/21 11:38:23;;;;;;;3.05;1.58;;;;;;;19.96;48.93;99331.47;10412898;28;20042;-73
2023/04/21 11:43:24;;;;;;;6.10;2.03;;;;;;;20.01;49.02;99333.38;10413545;28;20045;-72
2023/04/21 11:48:28;;;;;;;7.53;2.20;;;;;;;20.08;49.08;99336.69;10413139;28;20041;-73
2023/04/21 11:53:29;;;;;;;3.50;1.85;;;;;;;20.20;48.51;99347.34;10412125;28;20058;-73
2023/04/21 11:58:30;;;;;;;4.53;2.10;;;;;;;20.36;48.51;99349.09;10412328;28;20049;-73
2023/04/21 12:03:31;;;;;;;6.13;3.28;;;;;;;20.89;47.45;99351.97;10412583;28;20044;-72
2023/04/21 12:08:33;;;;;;;3.90;1.98;;;;;;;20.67;46.97;99319.66;10412003;28;20056;-72
2023/04/21 12:13:34;;;;;;;7.25;3.85;;;;;;;20.70;46.87;99266.00;10411881;28;20451;-72
2023/04/21 12:18:35;;;;;;;4.88;1.90;;;;;;;20.54;46.59;99301.25;10415314;28;20536;-72
2023/04/21 12:23:37;;;;;;;9.85;4.45;;;;;;;20.91;46.28;99342.53;10418972;28;20065;-73
2023/04/21 12:28:39;;;;;;;5.03;2.42;;;;;;;21.25;45.58;99349.47;10419363;28;20125;-72
2023/04/21 12:33:40;;;;;;;12.60;2.78;;;;;;;20.16;45.43;99208.69;10418287;28;20041;-73
2023/04/21 12:38:42;;;;;;;6.75;3.80;;;;;;;20.25;46.59;99328.47;10418724;28;20045;-73
2023/04/21 12:43:42;;;;;;;10.98;4.25;;;;;;;20.02;47.07;99348.50;10393554;28;20050;-71
2023/04/21 12:48:43;;;;;;;4.32;2.25;;;;;;;19.85;47.62;99348.59;10377887;28;20452;-72
2023/04/21 12:53:45;;;;;;;3.90;1.50;;;;;;;19.82;47.70;99346.41;10379961;28;20089;-73
2023/04/21 12:58:47;;;;;;;2.60;1.50;;;;;;;19.56;47.90;99351.47;10376997;28;20472;-72
2023/04/21 13:03:48;;;;;;;8.52;2.05;;;;;;;19.54;48.07;99325.84;10376812;28;20109;-72
2023/04/21 13:08:49;;;;;;;14.55;2.67;;;;;;;19.96;46.98;99285.63;10377306;28;20045;-73
2023/04/21 13:13:50;;;;;;;4.40;2.30;;;;;;;20.62;46.95;99357.44;10376847;28;20042;-72
2023/04/21 13:18:50;;;;;;;3.22;1.80;;;;;;;20.42;46.95;99347.25;10376453;28;20485;-72
2023/04/21 13:23:52;;;;;;;4.85;1.83;;;;;;;20.05;47.07;99338.03;10404865;28;20045;-76
2023/04/21 13:28:53;;;;;;;5.20;2.85;;;;;;;19.70;47.65;99359.19;10416402;28;20532;-73
2023/04/21 13:33:53;;;;;;;4.80;2.38;;;;;;;19.14;48.44;99311.63;10416652;28;20041;-73
2023/04/21 13:38:55;;;;;;;5.88;2.67;;;;;;;19.51;48.52;99397.19;10397953;28;20467;-72
2023/04/21 13:43:55;;;;;;;7.20;2.17;;;;;;;19.08;48.45;99327.94;10416352;28;20165;-72
2023/04/21 13:48:56;;;;;;;5.47;1.90;;;;;;;19.36;48.83;99378.97;10415992;28;20124;-72
2023/04/21 13:53:57;;;;;;;6.60;1.48;;;;;;;19.26;48.99;99378.81;10415831;28;20052;-72
2023/04/21 13:58:58;;;;;;;2.13;1.02;;;;;;;18.98;49.29;99370.88;10415784;28;20378;-72
2023/04/21 14:03:59;;;;;;;10.00;1.38;;;;;;;19.07;49.56;99391.75;10415900;28;20445;-72
2023/04/21 14:09:00;;;;;;;4.47;1.15;;;;;;;18.98;49.64;99419.31;10414517;28;20041;-72
2023/04/21 14:14:00;;;;;;;3.20;0.80;;;;;;;18.89;49.43;99400.09;10414842;28;20041;-73
2023/04/21 14:19:02;;;;;;;3.22;1.20;;;;;;;18.42;49.88;99336.63;10414594;28;20046;-73
2023/04/21 14:24:02;;;;;;;3.90;0.90;;;;;;;18.00;49.89;99314.66;10414563;28;20504;-73
2023/04/21 14:29:03;;;;;;;5.03;1.63;;;;;;;18.44;50.41;99419.75;10414456;28;20103;-73
2023/04/21 14:34:04;;;;;;;4.63;1.40;;;;;;;18.26;51.27;99418.09;10383322;28;20053;-73
2023/04/21 14:39:05;;;;;;;2.97;1.48;;;;;;;18.02;52.43;99412.81;10372666;28;20132;-73
2023/04/21 14:44:06;;;;;;;2.63;1.33;;;;;;;17.87;53.76;99441.25;10373201;28;20042;-74
2023/04/21 14:49:07;;;;;;;6.07;1.38;;;;;;;17.51;55.09;99445.84;10372866;28;20041;-73
2023/04/21 14:54:08;;;;;;;4.35;1.40;;;;;;;17.23;55.87;99444.69;10373207;28;20061;-74
2023/04/21 14:59:09;;;;;;;4.32;1.85;;;;;;;16.76;56.78;99398.22;10372770;28;20107;-77
2023/04/21 15:04:10;;;;;;;4.45;2.13;;;;;;;16.78;57.20;99418.41;10323097;28;20086;-79
2023/04/21 15:09:12;;;;;;;4.93;1.77;;;;;;;16.91;57.86;99457.59;10292454;28;20118;-76
2023/04/21 15:14:13;;;;;;;5.65;1.13;;;;;;;16.79;58.38;99456.78;10307229;28;20548;-76
2023/04/21 15:19:14;;;;;;;2.03;0.70;;;;;;;16.76;58.74;99455.34;10306196;28;20057;-75
2023/04/21 15:24:15;;;;;;;3.28;1.00;;;;;;;16.38;59.04;99405.56;10300915;28;20050;-74
2023/04/21 15:29:16;;;;;;;3.65;0.90;;;;;;;16.72;59.37;99489.03;10306475;28;20038;-76
2023/04/21 15:34:16;;;;;;;5.38;1.33;;;;;;;16.27;59.74;99443.84;10317590;28;20101;-74
2023/04/21 15:39:17;;;;;;;1.40;0.82;;;;;;;16.34;61.42;99510.78;10292033;28;20053;-76
2023/04/21 15:44:18;;;;;;;4.43;1.10;;;;;;;16.17;63.24;99523.97;10306985;28;20046;-73
2023/04/21 15:49:19;;;;;;;2.50;0.98;;;;;;;15.34;65.85;99460.16;10302113;28;20043;-72
2023/04/21 15:54:20;;;;;;;2.65;0.95;;;;;;;15.00;67.92;99481.84;10311366;28;20058;-75
2023/04/21 15:59:20;;;;;;;5.18;1.27;;;;;;;15.12;71.37;99556.88;10299738;28;20054;-74
2023/04/21 16:04:22;;;;;;;2.65;1.35;;;;;;;14.93;73.88;99569.34;10306682;28;20182;-76
2023/04/21 16:09:22;;;;;;;24.60;14.35;;;;;;;14.57;76.71;99536.03;10298139;28;20522;-76
2023/04/21 16:14:23;;;;;;;10.90;3.42;;;;;;;13.64;77.33;99392.19;10295894;28;20043;-80
2023/04/21 16:19:24;;;;;;;4.45;2.17;;;;;;;14.41;78.35;99514.28;10279041;28;20051;-83
2023/04/21 16:24:25;;;;;;;6.15;2.05;;;;;;;14.77;79.65;99585.88;10296082;28;20133;-81
2023/04/21 16:29:26;;;;;;;9.70;2.97;;;;;;;14.24;81.36;99521.94;10296448;28;20085;-85
2023/04/21 16:34:27;;;;;;;5.47;2.10;;;;;;;14.63;84.14;99605.69;10296806;28;20067;-80
2023/04/21 16:39:27;;;;;;;10.07;4.57;;;;;;;14.05;85.47;99495.09;10296426;28;20046;-78
2023/04/21 16:44:28;;;;;;;6.70;2.30;;;;;;;14.13;85.95;99524.25;10296330;28;20129;-79
2023/04/21 16:49:29;;;;;;;4.32;2.60;;;;;;;14.49;86.39;99610.25;10296659;28;20105;-81
2023/04/21 16:54:30;;;;;;;6.50;2.50;;;;;;;14.09;87.19;99548.91;10296521;28;20047;-85
2023/04/21 16:59:31;;;;;;;5.95;2.72;;;;;;;14.41;88.28;99595.25;10278805;28;20051;-84
2023/04/21 17:04:32;;;;;;;10.60;4.90;;;;;;;14.09;89.86;99552.44;10268277;28;20063;-78
2023/04/21 17:09:32;;;;;;;5.63;2.72;;;;;;;14.07;90.06;99561.69;10295869;28;20043;-78
2023/04/21 17:14:33;;;;;;;13.20;3.25;;;;;;;14.11;90.42;99601.09;10295592;28;20035;-80
2023/04/21 17:19:34;;;;;;;6.22;3.03;;;;;;;14.02;91.59;99602.34;10329980;28;20052;-86
2023/04/21 17:24:35;;;;;;;4.57;2.40;;;;;;;13.98;92.61;99598.47;10299134;28;20046;-85
2023/04/21 17:29:36;;;;;;;5.25;2.45;;;;;;;13.95;92.86;99590.88;10295515;28;20411;-83
2023/04/21 17:34:36;;;;;;;4.45;2.78;;;;;;;13.97;93.65;99587.97;10325429;28;20050;-73
2023/04/21 17:39:37;;;;;;;6.70;2.75;;;;;;;14.00;94.57;99593.75;10333419;28;20093;-72
2023/04/21 17:44:39;;;;;;;6.47;3.38;;;;;;;13.97;94.73;99607.50;10333443;28;20050;-74
2023/04/21 17:49:40;;;;;;;4.43;2.85;;;;;;;14.00;95.75;99633.81;10333907;28;20088;-73
2023/04/21 17:54:41;;;;;;;5.78;2.97;;;;;;;14.00;96.20;99608.91;10316028;28;20426;-73
2023/04/21 17:59:42;;;;;;;13.73;8.27;;;;;;;13.86;96.53;99582.25;10333379;28;20108;-73
2023/04/21 18:04:43;;;;;;;10.13;5.90;;;;;;;14.04;97.06;99608.31;10315701;28;20446;-72
2023/04/21 18:09:47;;;;;;;3.90;3.00;;;;;;;13.64;97.29;99538.97;10315916;28;20108;-70
2023/04/21 18:14:48;;;;;;;6.43;3.00;;;;;;;13.92;97.96;99605.44;10332827;28;20050;-72
2023/04/21 18:19:49;;;;;;;8.27;3.05;;;;;;;13.86;98.37;99610.81;10332734;28;20057;-73
2023/04/21 18:24:49;;;;;;;3.58;2.33;;;;;;;13.74;99.08;99621.28;10332854;28;20121;-73
2023/04/21 18:29:52;;;;;;;7.30;3.00;;;;;;;13.80;99.58;99630.31;10332413;28;20050;-73
2023/04/21 18:34:53;;;;;;;5.13;3.30;;;;;;;13.78;99.44;99616.34;10315532;28;20046;-72
2023/04/21 18:39:54;;;;;;;6.43;4.07;;;;;;;13.38;99.71;99568.34;10331844;28;20061;-74
2023/04/21 18:44:55;;;;;;;7.80;4.68;;;;;;;13.84;99.97;99652.91;10332772;28;20402;-73
2023/04/21 18:49:55;;;;;;;5.95;3.88;;;;;;;12.84;100.00;99489.31;10331271;28;20047;-71
2023/04/21 18:54:56;;;;;;;5.10;3.80;;;;;;;13.79;100.00;99655.34;10332339;28;20062;-72
2023/04/21 18:59:58;;;;;;;5.72;4.22;;;;;;;13.58;100.00;99621.69;10331539;28;20109;-72
2023/04/21 19:05:00;;;;;;;9.05;4.45;;;;;;;13.58;100.00;99605.69;10331203;28;20065;-74
2023/04/21 19:10:00;;;;;;;8.02;5.68;;;;;;;13.64;100.00;99627.03;10330031;28;20033;-71
2023/04/21 19:15:02;;;;;;;6.18;4.00;;;;;;;13.38;100.00;99579.84;10332274;28;20137;-71
2023/04/21 19:20:03;;;;;;;6.25;3.85;;;;;;;13.59;100.00;99607.34;10331501;28;20081;-71
2023/04/21 19:25:05;;;;;;;9.05;7.30;;;;;;;13.55;100.00;99580.25;10331763;28;20038;-70
2023/04/21 19:30:07;;;;;;;4.75;3.88;;;;;;;13.67;100.00;99599.94;10339989;28;20042;-70
2023/04/21 19:35:08;;;;;;;5.70;3.78;;;;;;;13.43;100.00;99576.53;10321649;28;20042;-71
2023/04/21 19:40:09;;;;;;;5.30;4.32;;;;;;;13.53;100.00;99606.31;10340087;28;20052;-71
2023/04/21 19:45:11;;;;;;;7.57;4.30;;;;;;;13.51;100.00;99602.19;10339110;28;20048;-73
2023/04/21 19:50:12;;;;;;;6.45;3.55;;;;;;;13.41;100.00;99595.44;10339807;28;20606;-71
2023/04/21 19:55:14;;;;;;;7.35;4.10;;;;;;;13.32;100.00;99590.50;10308495;28;20164;-71
2023/04/21 20:00:15;;;;;;;13.45;3.80;;;;;;;13.30;100.00;99609.38;10338366;28;20052;-72
2023/04/21 20:05:16;;;;;;;4.95;3.55;;;;;;;13.16;100.00;99589.00;10319893;28;20484;-71
2023/04/21 20:10:17;;;;;;;6.32;3.65;;;;;;;12.27;100.00;99456.81;10336117;28;20125;-71
2023/04/21 20:15:18;;;;;;;6.88;4.28;;;;;;;13.02;100.00;99588.16;10338677;28;20054;-70
2023/04/21 20:20:19;;;;;;;5.68;4.28;;;;;;;13.01;100.00;99591.84;10338186;28;20132;-71
2023/04/21 20:25:20;;;;;;;6.07;4.60;;;;;;;13.13;100.00;99590.25;10295437;28;20141;-71
2023/04/21 20:30:21;;;;;;;9.98;4.00;;;;;;;12.01;100.00;99422.94;10297608;28;20049;-71
2023/04/21 20:35:22;;;;;;;5.78;3.80;;;;;;;13.08;100.00;99608.69;10297242;28;20081;-71
2023/04/21 20:40:23;;;;;;;5.97;3.85;;;;;;;13.00;100.00;99611.53;10293486;28;20056;-71
2023/04/21 20:45:25;;;;;;;6.97;3.88;;;;;;;12.93;100.00;99610.72;10336295;28;20560;-71
2023/04/21 20:50:26;;;;;;;5.00;3.78;;;;;;;12.75;100.00;99600.63;10305818;28;20061;-71
2023/04/21 20:55:27;;;;;;;9.52;3.88;;;;;;;12.78;100.00;99630.34;10336765;28;20557;-71
2023/04/21 21:00:29;;;;;;;5.28;4.10;;;;;;;12.72;100.00;99627.66;10336668;28;20057;-71
2023/04/21 21:05:32;;;;;;;5.25;4.25;;;;;;;12.65;100.00;99621.47;10337163;28;20064;-71
2023/04/21 21:10:34;;;;;;;5.30;4.17;;;;;;;11.73;100.00;99485.03;10336159;28;20125;-71
2023/04/21 21:15:35;;;;;;;7.28;5.15;;;;;;;12.48;100.00;99613.84;10335897;28;20042;-71
2023/04/21 21:20:36;;;;;;;7.68;5.57;;;;;;;12.41;100.00;99609.47;10335734;28;20042;-71
2023/04/21 21:25:37;;;;;;;6.68;4.93;;;;;;;12.46;100.00;99607.06;10335540;28;20057;-71
2023/04/21 21:30:38;;;;;;;6.95;6.07;;;;;;;12.34;100.00;99604.94;10335423;28;20117;-71
2023/04/21 21:35:39;;;;;;;7.15;5.85;;;;;;;12.24;100.00;99606.34;10334583;28;20133;-71
2023/04/21 21:40:40;;;;;;;8.45;5.40;;;;;;;11.96;100.00;99556.59;10334293;28;20490;-71
2023/04/21 21:45:41;;;;;;;6.13;4.57;;;;;;;12.04;100.00;99608.88;10334876;28;20066;-71
2023/04/21 21:50:42;;;;;;;6.82;3.63;;;;;;;11.76;100.00;99585.75;10334285;28;20045;-71
2023/04/21 21:55:43;;;;;;;9.20;4.30;;;;;;;11.69;100.00;99608.81;10316474;28;20058;-71
2023/04/21 22:00:43;;;;;;;7.95;4.35;;;;;;;11.19;100.00;99552.16;10333643;28;20046;-71
2023/04/21 22:05:44;;;;;;;5.25;3.75;;;;;;;11.02;100.00;99543.63;10333383;28;20038;-71
2023/04/21 22:10:45;;;;;;;8.27;3.78;;;;;;;11.32;100.00;99621.38;10334247;28;20072;-71
2023/04/21 22:15:46;;;;;;;5.93;4.55;;;;;;;11.15;100.00;99606.69;10333026;28;20042;-71
2023/04/21 22:20:47;;;;;;;7.07;4.20;;;;;;;11.03;100.00;99601.06;10332912;28;20042;-71
2023/04/21 22:25:47;;;;;;;5.85;4.28;;;;;;;11.24;100.00;99613.53;10333411;28;20038;-71
2023/04/21 22:30:49;;;;;;;9.68;5.10;;;;;;;11.18;100.00;99614.28;10333390;28;20128;-71
2023/04/21 22:35:50;;;;;;;14.52;5.32;;;;;;;10.79;100.00;99573.00;10322491;28;20042;-71
2023/04/21 22:40:50;;;;;;;6.22;4.28;;;;;;;11.07;100.00;99633.41;10291868;28;20495;-71
2023/04/21 22:45:51;;;;;;;5.15;3.75;;;;;;;10.48;100.00;99536.94;10291099;28;20038;-71
2023/04/21 22:50:54;;;;;;;4.20;3.58;;;;;;;10.95;100.00;99625.13;10328679;28;20097;-71
2023/04/21 22:55:55;;;;;;;5.00;3.70;;;;;;;10.94;100.00;99636.75;10332533;28;20065;-71
2023/04/21 23:00:56;;;;;;;5.43;3.28;;;;;;;10.74;100.00;99620.59;10331005;28;20081;-71
2023/04/21 23:05:57;;;;;;;13.38;5.63;;;;;;;10.64;100.00;99617.38;10331344;28;20041;-71
2023/04/21 23:10:58;;;;;;;9.82;4.82;;;;;;;10.45;100.00;99590.41;10331464;28;20046;-71
2023/04/21 23:16:00;;;;;;;13.10;6.13;;;;;;;10.38;100.00;99604.59;10331512;28;20046;-71